Ocoee 1 Observed Data For Previous 48 Hours

Caption
Day and Hour Reservoir Elevation (behind dam)* Tailwater Elevation (below dam)* Average Hourly Discharge*
12/10/2018 2 AM EST 828.96 720.48 5,797
12/10/2018 3 AM EST 828.92 720.40 5,766
12/10/2018 4 AM EST 828.86 720.37 5,718
12/10/2018 5 AM EST 828.76 720.31 5,645
12/10/2018 6 AM EST 828.66 720.23 5,554
12/10/2018 7 AM EST 828.56 720.16 5,471
12/10/2018 8 AM EST 828.47 720.10 5,384
12/10/2018 9 AM EST 828.38 720.05 5,314
12/10/2018 10 AM EST 828.28 719.99 5,240
12/10/2018 11 AM EST 828.19 719.89 5,156
12/10/2018 12 PM EST 828.10 719.83 5,087
12/10/2018 1 PM EST 828.02 719.78 5,019
12/10/2018 2 PM EST 828.00 718.02 3,393
12/10/2018 3 PM EST 828.00 718.01 2,769
12/10/2018 4 PM EST 827.99 717.99 2,769
12/10/2018 5 PM EST 827.98 717.99 2,772
12/10/2018 6 PM EST 827.97 717.99 2,773
12/10/2018 7 PM EST 827.96 717.98 2,761
12/10/2018 8 PM EST 827.95 717.99 2,758
12/10/2018 9 PM EST 827.94 717.99 2,767
12/10/2018 10 PM EST 827.93 717.99 2,765
12/10/2018 11 PM EST 827.92 717.98 2,767
12/11/2018 12 AM EST 827.90 717.99 2,770
12/11/2018 1 AM EST 827.89 718.00 2,774
12/11/2018 2 AM EST 827.87 718.00 2,767
12/11/2018 3 AM EST 827.89 716.99 1,994
12/11/2018 4 AM EST 827.91 716.97 1,980
12/11/2018 5 AM EST 827.92 716.98 1,982
12/11/2018 6 AM EST 827.94 716.95 1,977
12/11/2018 7 AM EST 827.94 717.94 2,336
12/11/2018 8 AM EST 827.93 718.00 2,769
12/11/2018 9 AM EST 827.91 717.98 2,771
12/11/2018 10 AM EST 827.89 717.98 2,763
12/11/2018 11 AM EST 827.90 716.95 1,982
12/11/2018 12 PM EST 827.94 716.03 1,331
12/11/2018 1 PM EST 827.99 716.01 1,328
12/11/2018 2 PM EST 828.03 716.01 1,321
12/11/2018 3 PM EST 828.07 716.00 1,325
12/11/2018 4 PM EST 828.11 716.01 1,324
12/11/2018 5 PM EST 828.17 716.11 1,344
12/11/2018 6 PM EST 828.19 717.11 2,013
12/11/2018 7 PM EST 828.20 717.97 2,761
12/11/2018 8 PM EST 828.19 717.98 2,759
12/11/2018 9 PM EST 828.19 717.98 2,760
12/11/2018 10 PM EST 828.19 717.97 2,760
12/11/2018 11 PM EST 828.22 716.95 1,973
12/12/2018 12 AM EST 828.28 716.01 1,329
12/12/2018 1 AM EST 828.32 716.18 1,354
12/12/2018 2 AM EST 828.32 717.96 2,750

Elevations are in feet above sea level. Discharges are in cubic feet per second and are reported at the end of the hour.